createdAt,value
2023-02-03T00:04:25.509Z,10.20
2023-02-03T00:09:33.244Z,12.70
2023-02-03T00:14:39.608Z,11.40
2023-02-03T00:19:45.767Z,8.80
2023-02-03T00:24:54.271Z,9.30
2023-02-03T00:30:00.436Z,9.40
2023-02-03T00:35:11.811Z,9.90
2023-02-03T00:40:18.771Z,7.40
2023-02-03T00:45:28.166Z,9.40
2023-02-03T00:50:35.651Z,13.50
2023-02-03T00:55:42.833Z,10.50
2023-02-03T01:00:50.047Z,8.60
2023-02-03T01:06:07.916Z,8.20
2023-02-03T01:11:17.557Z,8.20
2023-02-03T01:16:28.599Z,7.30
2023-02-03T01:21:36.432Z,6.40
2023-02-03T01:26:43.005Z,6.90
2023-02-03T01:31:49.717Z,7.30
2023-02-03T01:36:56.487Z,5.80
2023-02-03T01:42:03.324Z,4.90
2023-02-03T01:47:23.508Z,7.40
2023-02-03T01:52:31.867Z,5.80
2023-02-03T01:57:42.863Z,6.00
2023-02-03T02:02:50.967Z,8.60
2023-02-03T02:08:00.771Z,8.60
2023-02-03T02:13:08.862Z,5.90
2023-02-03T02:18:31.535Z,5.20
2023-02-03T02:24:09.099Z,7.80
2023-02-03T02:29:47.794Z,7.30
2023-02-03T02:35:04.857Z,6.20
2023-02-03T02:40:22.043Z,8.40
2023-02-03T02:45:32.435Z,6.60
2023-02-03T02:50:44.059Z,4.30
2023-02-03T02:55:52.125Z,5.30
2023-02-03T03:01:01.987Z,6.50
2023-02-03T03:06:13.102Z,6.80
2023-02-03T03:11:21.847Z,6.70
2023-02-03T03:16:33.944Z,5.50
2023-02-03T03:21:44.814Z,6.20
2023-02-03T03:26:56.246Z,4.70
2023-02-03T03:32:03.412Z,8.80
2023-02-03T03:37:19.069Z,6.80
2023-02-03T03:42:31.746Z,8.60
2023-02-03T03:47:42.982Z,5.70
2023-02-03T03:52:52.336Z,5.70
2023-02-03T03:58:02.652Z,6.60
2023-02-03T04:03:14.624Z,6.00
2023-02-03T04:08:21.791Z,6.60
2023-02-03T04:13:28.802Z,9.10
2023-02-03T04:18:34.942Z,9.60
2023-02-03T04:23:41.364Z,8.70
2023-02-03T04:28:47.806Z,8.10
2023-02-03T04:33:54.382Z,6.10
2023-02-03T04:39:00.548Z,10.60
2023-02-03T04:44:06.774Z,9.60
2023-02-03T04:49:13.540Z,13.20
2023-02-03T04:54:20.683Z,10.60
2023-02-03T04:59:28.056Z,6.80
2023-02-03T05:04:35.484Z,9.60
2023-02-03T05:09:41.972Z,23.50
2023-02-03T05:14:48.921Z,26.00
2023-02-03T05:19:55.009Z,13.70
2023-02-03T05:25:01.664Z,11.30
2023-02-03T05:30:10.162Z,10.60
2023-02-03T05:35:18.007Z,13.10
2023-02-03T05:40:43.655Z,13.90
2023-02-03T05:45:51.027Z,15.70
2023-02-03T05:50:58.911Z,25.20
2023-02-03T05:56:05.769Z,18.70
2023-02-03T06:01:13.052Z,14.80
2023-02-03T06:06:20.535Z,15.90
2023-02-03T06:11:26.962Z,15.60
2023-02-03T06:16:34.446Z,17.60
2023-02-03T06:21:40.333Z,20.20
2023-02-03T06:26:45.939Z,16.50
2023-02-03T06:31:51.973Z,21.80
2023-02-03T06:36:57.834Z,21.90
2023-02-03T06:42:03.499Z,22.20
2023-02-03T06:47:09.201Z,26.50
2023-02-03T06:52:15.649Z,21.70
2023-02-03T06:57:21.545Z,20.50
2023-02-03T07:02:27.269Z,22.20
2023-02-03T07:07:34.063Z,30.90
2023-02-03T07:12:39.746Z,38.80
2023-02-03T07:17:51.467Z,43.00
2023-02-03T07:22:58.584Z,45.80
2023-02-03T07:28:04.515Z,39.70
2023-02-03T07:33:10.146Z,29.20
2023-02-03T07:38:15.860Z,27.10
2023-02-03T07:43:21.698Z,22.10
2023-02-03T07:48:27.561Z,28.60
2023-02-03T07:53:33.826Z,17.00
2023-02-03T07:58:39.701Z,17.40
2023-02-03T08:03:45.380Z,17.20
2023-02-03T08:08:50.924Z,15.70
2023-02-03T08:13:56.641Z,12.70
2023-02-03T08:19:02.567Z,16.60
2023-02-03T08:24:10.674Z,22.80
2023-02-03T08:29:16.321Z,12.10
2023-02-03T08:34:22.006Z,13.80
2023-02-03T08:39:28.282Z,10.20
2023-02-03T08:44:34.975Z,13.30
2023-02-03T08:49:41.221Z,9.90
2023-02-03T08:54:47.091Z,9.10
2023-02-03T08:59:52.693Z,10.50
2023-02-03T09:04:58.550Z,9.70
2023-02-03T09:10:05.067Z,13.90
2023-02-03T09:15:11.853Z,12.40
2023-02-03T09:20:19.359Z,9.50
2023-02-03T09:25:25.053Z,9.00
2023-02-03T09:30:31.465Z,12.60
2023-02-03T09:35:37.689Z,14.60
2023-02-03T09:40:43.495Z,16.40
2023-02-03T09:45:50.413Z,14.00
2023-02-03T09:50:56.283Z,10.20
2023-02-03T09:56:02.423Z,10.20
2023-02-03T10:01:13.972Z,62.70
2023-02-03T10:06:31.178Z,5.60
2023-02-03T10:11:53.211Z,4.90
2023-02-03T10:17:14.406Z,4.10
2023-02-03T10:22:26.051Z,5.00
2023-02-03T10:27:35.274Z,8.10
2023-02-03T10:32:40.970Z,7.80
2023-02-03T10:37:50.751Z,6.40
2023-02-03T10:43:15.686Z,10.70
2023-02-03T10:48:22.308Z,8.50
2023-02-03T10:53:34.768Z,8.50
2023-02-03T10:58:49.355Z,9.30
2023-02-03T11:04:01.368Z,8.30
2023-02-03T11:09:29.168Z,5.20
2023-02-03T11:14:40.826Z,6.10
2023-02-03T11:19:48.554Z,11.00
2023-02-03T11:24:54.664Z,6.90
2023-02-03T11:30:16.455Z,16.90
2023-02-03T11:35:24.517Z,8.10
2023-02-03T11:40:32.616Z,47.40
2023-02-03T11:45:42.065Z,58.80
2023-02-03T11:50:51.560Z,66.40
2023-02-03T11:56:09.717Z,47.40
2023-02-03T12:01:27.253Z,50.40
2023-02-03T12:06:59.818Z,35.60
2023-02-03T12:12:41.441Z,39.10
2023-02-03T12:17:57.058Z,16.70
2023-02-03T12:23:14.258Z,16.50
2023-02-03T12:28:34.414Z,22.10
2023-02-03T12:33:46.478Z,17.20
2023-02-03T12:38:56.039Z,9.10
2023-02-03T12:44:12.265Z,12.20
2023-02-03T12:49:31.481Z,15.90
2023-02-03T12:54:45.597Z,12.90
2023-02-03T13:00:10.609Z,13.60
2023-02-03T13:05:23.926Z,7.80
2023-02-03T13:10:33.977Z,9.90
2023-02-03T13:15:44.537Z,14.50
2023-02-03T13:20:50.406Z,21.20
2023-02-03T13:26:20.832Z,13.70
2023-02-03T13:31:41.203Z,17.80
2023-02-03T13:37:11.371Z,20.00
2023-02-03T13:42:25.510Z,24.70
2023-02-03T13:47:33.673Z,66.80
2023-02-03T13:52:56.871Z,22.60
2023-02-03T13:58:04.312Z,22.70
2023-02-03T14:03:37.594Z,41.40
2023-02-03T14:08:52.507Z,22.30
2023-02-03T14:14:21.149Z,27.80
2023-02-03T14:19:56.434Z,32.50
2023-02-03T14:25:07.950Z,27.30
2023-02-03T14:30:19.368Z,35.60
2023-02-03T14:35:31.540Z,27.10
2023-02-03T14:40:48.432Z,24.90
2023-02-03T14:46:10.342Z,30.50
2023-02-03T14:51:27.648Z,41.50
2023-02-03T14:57:24.537Z,25.30
2023-02-03T15:02:31.992Z,21.70
2023-02-03T15:07:44.741Z,22.70
2023-02-03T15:12:52.042Z,36.70
2023-02-03T15:18:00.171Z,21.70
2023-02-03T15:23:22.127Z,17.80
2023-02-03T15:28:29.327Z,17.40
2023-02-03T15:33:38.553Z,18.40
2023-02-03T15:38:48.821Z,19.30
2023-02-03T15:43:59.133Z,17.10
2023-02-03T15:49:09.387Z,16.60
2023-02-03T15:54:24.374Z,15.30
2023-02-03T15:59:35.197Z,13.60
2023-02-03T16:04:41.067Z,17.40
2023-02-03T16:09:47.166Z,21.40
2023-02-03T16:14:54.836Z,22.00
2023-02-03T16:20:24.111Z,19.00
2023-02-03T16:25:32.467Z,22.70
2023-02-03T16:30:57.766Z,20.50
2023-02-03T16:36:32.038Z,29.10
2023-02-03T16:41:56.971Z,27.80
2023-02-03T16:47:21.734Z,23.70
2023-02-03T16:52:27.588Z,26.80
2023-02-03T16:57:33.288Z,23.90
2023-02-03T17:02:38.829Z,31.00
2023-02-03T17:07:50.378Z,27.80
2023-02-03T17:12:56.025Z,29.30
2023-02-03T17:18:01.636Z,46.30
2023-02-03T17:23:07.344Z,33.40
2023-02-03T17:28:14.025Z,36.10
2023-02-03T17:33:19.887Z,28.20
2023-02-03T17:38:25.625Z,46.00
2023-02-03T17:54:42.374Z,45.80
2023-02-03T17:59:48.519Z,29.90
2023-02-03T18:05:04.164Z,24.60
2023-02-03T18:10:11.566Z,32.10
2023-02-03T18:15:17.524Z,35.20
2023-02-03T18:20:23.328Z,37.60
2023-02-03T18:25:28.935Z,31.20
2023-02-03T18:30:34.862Z,34.80
2023-02-03T18:35:41.129Z,27.20
2023-02-03T18:40:47.100Z,27.30
2023-02-03T18:45:53.141Z,29.60
2023-02-03T18:50:58.878Z,26.40
2023-02-03T18:56:07.863Z,25.20
2023-02-03T19:01:22.475Z,27.90
2023-02-03T19:06:30.597Z,28.50
2023-02-03T19:11:38.210Z,28.90
2023-02-03T19:16:44.153Z,35.90
2023-02-03T19:21:49.942Z,74.20
2023-02-03T19:26:55.834Z,45.90
2023-02-03T19:32:01.755Z,46.80
2023-02-03T19:37:08.646Z,39.90
2023-02-03T19:42:14.212Z,42.30
2023-02-03T19:47:19.890Z,31.40
2023-02-03T19:52:25.832Z,27.50
2023-02-03T19:57:31.412Z,23.60
2023-02-03T20:02:37.319Z,32.10
2023-02-03T20:07:43.256Z,28.80
2023-02-03T20:12:50.124Z,28.90
2023-02-03T20:17:55.933Z,27.70
2023-02-03T20:23:01.867Z,29.50
2023-02-03T20:28:07.677Z,25.90
2023-02-03T20:33:14.623Z,30.70
2023-02-03T20:38:20.658Z,52.70
2023-02-03T20:43:27.683Z,53.10
2023-02-03T20:48:33.566Z,38.70
2023-02-03T20:53:39.808Z,32.40
2023-02-03T20:58:45.764Z,34.10
2023-02-03T21:04:11.830Z,30.40
2023-02-03T21:09:21.132Z,31.30
2023-02-03T21:14:34.893Z,35.20
2023-02-03T21:19:41.473Z,36.50
2023-02-03T21:24:54.102Z,36.70
2023-02-03T21:30:01.833Z,33.00
2023-02-03T21:35:24.349Z,37.40
2023-02-03T21:40:31.644Z,30.40
2023-02-03T21:45:42.059Z,31.00
2023-02-03T21:50:48.360Z,29.00
2023-02-03T21:55:54.250Z,29.60
2023-02-03T22:01:02.182Z,26.20
2023-02-03T22:06:19.223Z,26.20
2023-02-03T22:11:27.385Z,25.90
2023-02-03T22:16:33.084Z,22.30
2023-02-03T22:21:39.211Z,22.80
2023-02-03T22:26:44.878Z,19.80
2023-02-03T22:31:50.990Z,18.50
2023-02-03T22:36:57.116Z,22.80
2023-02-03T22:42:03.019Z,20.00
2023-02-03T22:47:08.656Z,19.40
2023-02-03T22:52:14.780Z,18.10
2023-02-03T22:57:20.403Z,22.70
2023-02-03T23:02:26.447Z,22.90
2023-02-03T23:07:33.212Z,25.10
2023-02-03T23:12:38.843Z,29.60
2023-02-03T23:17:45.690Z,24.40
2023-02-03T23:22:51.820Z,19.10
2023-02-03T23:28:01.670Z,23.80
2023-02-03T23:43:18.837Z,16.70
2023-02-03T23:48:25.390Z,16.60
2023-02-03T23:53:31.691Z,16.90
2023-02-03T23:58:38.141Z,18.80
